Time;durP1;ratioP1;P1;durP2;ratioP2;P2;SDS_P1;SDS_P2;PMS_P1;PMS_P2;Temp;Humidity;BMP_temperature;BMP_pressure;BME280_temperature;BME280_humidity;BME280_pressure;Samples;Min_cycle;Max_cycle;Signal;HPM_P1;HPM_P2
2022/12/12 00:00:45;;;;;;;46.08;25.80;;;;;;;0.55;76.22;100456.97;5034810;28;20045;-63
2022/12/12 00:03:12;;;;;;;45.97;25.15;;;;;;;0.30;76.03;100453.16;5035744;28;20412;-63
2022/12/12 00:05:40;;;;;;;45.42;24.33;;;;;;;0.24;77.70;100454.13;5031789;28;20076;-63
2022/12/12 00:08:07;;;;;;;44.25;24.35;;;;;;;0.25;77.60;100455.75;5034638;28;20416;-64
2022/12/12 00:10:35;;;;;;;47.47;25.80;;;;;;;0.21;77.41;100457.38;5033727;28;20057;-63
2022/12/12 00:13:02;;;;;;;46.72;25.83;;;;;;;0.33;76.98;100458.84;5024183;28;20068;-63
2022/12/12 00:15:30;;;;;;;49.55;26.63;;;;;;;0.69;76.38;100457.38;5018520;28;20062;-63
2022/12/12 00:17:57;;;;;;;44.22;24.85;;;;;;;0.78;75.62;100453.97;5040290;28;20049;-63
2022/12/12 00:20:24;;;;;;;45.45;24.35;;;;;;;1.03;75.65;100458.78;5034679;28;20578;-63
2022/12/12 00:22:52;;;;;;;42.53;23.80;;;;;;;1.06;74.29;100448.22;5034594;28;20049;-62
2022/12/12 00:25:19;;;;;;;42.53;23.77;;;;;;;0.62;74.38;100456.75;5033986;28;20060;-63
2022/12/12 00:27:46;;;;;;;42.95;23.92;;;;;;;0.61;75.63;100455.13;5034360;28;20060;-63
2022/12/12 00:30:14;;;;;;;44.50;23.50;;;;;;;0.62;75.53;100457.56;5035082;28;20056;-63
2022/12/12 00:32:41;;;;;;;42.42;23.45;;;;;;;0.88;75.15;100458.66;5034775;28;20049;-63
2022/12/12 00:35:08;;;;;;;43.92;22.85;;;;;;;0.94;74.75;100452.22;5035466;28;20049;-64
2022/12/12 00:37:37;;;;;;;41.88;23.42;;;;;;;0.98;74.16;100451.44;5046338;28;20050;-64
2022/12/12 00:40:05;;;;;;;43.38;23.55;;;;;;;0.95;74.50;100461.97;5035421;28;20049;-63
2022/12/12 00:42:32;;;;;;;45.25;24.25;;;;;;;1.01;74.70;100464.47;5032617;28;20060;-64
2022/12/12 00:44:59;;;;;;;42.55;22.88;;;;;;;0.99;74.44;100472.03;5035682;28;20057;-63
2022/12/12 00:47:27;;;;;;;43.95;23.83;;;;;;;1.13;74.36;100475.16;5052529;28;20075;-63
2022/12/12 00:49:54;;;;;;;45.25;24.25;;;;;;;1.33;73.87;100467.19;5055128;28;20368;-63
2022/12/12 00:52:21;;;;;;;45.05;23.92;;;;;;;1.42;73.74;100464.81;5045831;28;20046;-62
2022/12/12 00:54:48;;;;;;;42.58;22.50;;;;;;;1.41;73.38;100458.59;5017655;28;20054;-63
2022/12/12 00:57:16;;;;;;;42.22;22.58;;;;;;;1.33;73.05;100464.47;5030571;28;20057;-63
2022/12/12 00:59:44;;;;;;;41.05;22.77;;;;;;;0.87;74.98;100467.88;5033743;28;20049;-63
2022/12/12 01:02:11;;;;;;;41.60;23.00;;;;;;;0.63;76.28;100469.22;5051720;28;20049;-63
2022/12/12 01:04:38;;;;;;;45.70;23.23;;;;;;;0.83;75.92;100475.69;5055356;28;20056;-62
2022/12/12 01:07:06;;;;;;;42.17;22.60;;;;;;;1.13;75.24;100462.41;5025862;28;20046;-63
2022/12/12 01:09:33;;;;;;;39.85;22.10;;;;;;;1.03;75.24;100464.19;4998218;28;20531;-64
2022/12/12 01:12:01;;;;;;;41.53;22.70;;;;;;;1.15;75.02;100467.59;5033085;28;20497;-62
2022/12/12 01:14:28;;;;;;;44.40;21.65;;;;;;;1.03;74.38;100475.06;5050289;28;20523;-63
2022/12/12 01:16:55;;;;;;;41.47;21.42;;;;;;;1.16;74.46;100458.38;5036060;28;20059;-62
2022/12/12 01:19:22;;;;;;;41.38;21.70;;;;;;;1.28;73.96;100460.91;5035958;28;20065;-62
2022/12/12 01:21:50;;;;;;;40.13;22.38;;;;;;;1.24;74.41;100457.09;5047376;28;20056;-62
2022/12/12 01:24:17;;;;;;;38.22;21.85;;;;;;;1.20;74.20;100464.94;5034440;28;20090;-63
2022/12/12 01:26:44;;;;;;;42.13;21.48;;;;;;;1.41;73.80;100465.91;5034358;28;20068;-63
2022/12/12 01:29:11;;;;;;;43.05;22.10;;;;;;;1.47;73.36;100470.28;5049911;28;20045;-62
2022/12/12 01:31:39;;;;;;;38.60;20.92;;;;;;;1.29;72.98;100471.50;5032295;28;20053;-62
2022/12/12 01:34:06;;;;;;;38.97;20.88;;;;;;;0.96;74.63;100482.56;5049735;28;20041;-63
2022/12/12 01:36:34;;;;;;;36.50;20.75;;;;;;;0.83;75.24;100483.00;5030157;28;20053;-62
2022/12/12 01:39:02;;;;;;;42.97;20.42;;;;;;;0.93;75.36;100486.63;5034631;28;20058;-63
2022/12/12 01:41:29;;;;;;;37.65;19.73;;;;;;;0.82;75.04;100484.09;5033307;28;20164;-63
2022/12/12 01:44:00;;;;;;;39.70;21.13;;;;;;;0.94;74.88;100488.25;5032087;28;20033;-64
2022/12/12 01:46:38;;;;;;;40.95;20.58;;;;;;;1.20;74.58;100480.38;5044898;28;20480;-63
2022/12/12 01:49:14;;;;;;;32.55;18.92;;;;;;;1.29;74.15;100470.69;5055633;28;20057;-63
2022/12/12 01:51:43;;;;;;;34.97;19.05;;;;;;;1.18;74.11;100472.50;5040498;28;20528;-63
2022/12/12 01:54:14;;;;;;;39.03;19.63;;;;;;;1.10;74.32;100487.34;4984759;28;20046;-64
2022/12/12 01:56:43;;;;;;;34.88;19.98;;;;;;;1.09;74.05;100483.00;5022131;28;20058;-63
2022/12/12 01:59:14;;;;;;;37.55;19.50;;;;;;;1.10;73.68;100476.50;5035373;28;20054;-63
2022/12/12 02:01:41;;;;;;;33.65;18.48;;;;;;;1.29;73.43;100476.13;5039944;28;20088;-63
2022/12/12 02:04:10;;;;;;;35.08;19.45;;;;;;;1.31;73.39;100466.63;5017218;28;20049;-64
2022/12/12 02:06:38;;;;;;;32.90;19.00;;;;;;;1.15;73.64;100470.31;5020308;28;20061;-64
2022/12/12 02:09:09;;;;;;;34.15;19.10;;;;;;;1.09;73.74;100476.75;5036382;28;20505;-63
2022/12/12 02:11:42;;;;;;;34.28;19.02;;;;;;;1.09;73.88;100476.75;5030892;28;20421;-64
2022/12/12 02:14:10;;;;;;;31.33;18.75;;;;;;;0.85;74.32;100475.44;5000611;28;20061;-62
2022/12/12 02:16:54;;;;;;;33.65;18.80;;;;;;;0.58;74.88;100474.59;5034066;28;20496;-63
2022/12/12 02:19:53;;;;;;;33.95;18.35;;;;;;;0.80;75.12;100470.75;5025622;28;20452;-63
2022/12/12 02:22:35;;;;;;;35.47;18.73;;;;;;;0.97;74.66;100476.91;5037298;28;20053;-63
2022/12/12 02:25:11;;;;;;;30.63;18.00;;;;;;;0.60;74.97;100481.41;5037762;28;20069;-62
2022/12/12 02:28:07;;;;;;;30.88;18.23;;;;;;;0.87;74.88;100484.13;5037659;28;20153;-62
2022/12/12 02:30:44;;;;;;;30.58;17.20;;;;;;;1.28;73.92;100472.56;5047055;28;20064;-62
2022/12/12 02:33:27;;;;;;;33.42;17.70;;;;;;;1.24;73.14;100466.03;4986908;28;20465;-61
2022/12/12 02:36:12;;;;;;;33.90;19.13;;;;;;;1.11;72.92;100477.31;5022096;28;20048;-63
2022/12/12 02:39:08;;;;;;;30.77;17.63;;;;;;;0.99;73.25;100480.16;5019956;28;20492;-62
2022/12/12 02:41:55;;;;;;;34.65;17.58;;;;;;;0.52;74.53;100481.03;5034861;28;20049;-63
2022/12/12 02:44:37;;;;;;;38.60;18.08;;;;;;;0.65;74.40;100486.88;5031270;28;20197;-64
2022/12/12 02:47:18;;;;;;;33.95;18.88;;;;;;;0.96;74.31;100488.81;5052810;28;20049;-61
2022/12/12 02:50:14;;;;;;;35.75;17.95;;;;;;;1.21;73.33;100482.81;5018120;28;20116;-62
2022/12/12 02:52:42;;;;;;;38.00;19.10;;;;;;;1.05;73.07;100486.47;5050888;28;20049;-63
2022/12/12 02:55:10;;;;;;;31.40;18.00;;;;;;;0.92;73.16;100482.25;5022303;28;20056;-63
2022/12/12 02:57:40;;;;;;;33.45;19.17;;;;;;;1.08;73.75;100480.56;5056349;28;20057;-63
2022/12/12 03:00:13;;;;;;;35.72;19.02;;;;;;;0.97;73.39;100476.09;5056404;28;20056;-62
2022/12/12 03:07:45;;;;;;;32.70;18.13;;;;;;;1.07;73.60;100474.28;5033965;28;20052;-62
2022/12/12 03:09:13;;;;;;;33.17;19.30;;;;;;;1.01;74.45;100469.09;5039585;28;20056;-63
2022/12/12 03:11:52;;;;;;;33.22;18.27;;;;;;;1.21;73.43;100463.00;5032608;28;20053;-62
2022/12/12 03:14:19;;;;;;;35.03;19.33;;;;;;;1.18;72.88;100453.50;5055433;28;20044;-63
2022/12/12 03:16:54;;;;;;;32.80;18.67;;;;;;;1.42;72.66;100468.34;5056030;28;20053;-62
2022/12/12 03:19:26;;;;;;;34.42;18.50;;;;;;;1.65;71.73;100464.44;5036260;28;20050;-62
2022/12/12 03:22:28;;;;;;;34.65;18.55;;;;;;;1.58;70.63;100455.72;5016491;28;20064;-62
2022/12/12 03:25:11;;;;;;;36.75;19.00;;;;;;;1.65;71.04;100454.41;5053129;28;20064;-63
2022/12/12 03:28:09;;;;;;;34.20;18.67;;;;;;;1.55;71.40;100457.03;5038166;28;20148;-61
2022/12/12 03:30:40;;;;;;;34.05;18.38;;;;;;;1.50;71.28;100459.72;5054054;28;20534;-62
2022/12/12 03:33:17;;;;;;;31.25;16.80;;;;;;;1.27;72.02;100465.53;5042760;28;20043;-62
2022/12/12 03:35:58;;;;;;;32.30;18.08;;;;;;;1.47;71.40;100468.38;5022628;28;20052;-63
2022/12/12 03:38:31;;;;;;;30.77;17.80;;;;;;;1.44;71.28;100468.91;5054840;28;20056;-63
2022/12/12 03:41:01;;;;;;;31.92;17.52;;;;;;;1.44;71.17;100473.50;5054483;28;20049;-62
2022/12/12 03:43:32;;;;;;;30.40;17.05;;;;;;;1.00;71.97;100476.41;5037296;28;20048;-63
2022/12/12 03:46:05;;;;;;;31.25;17.70;;;;;;;0.78;72.89;100478.34;5041824;28;20048;-62
2022/12/12 03:48:36;;;;;;;33.03;17.80;;;;;;;0.84;73.04;100479.19;5041763;28;20054;-62
2022/12/12 03:51:07;;;;;;;30.85;17.30;;;;;;;1.13;73.17;100481.38;5025294;28;20469;-62
2022/12/12 03:53:42;;;;;;;31.25;17.50;;;;;;;1.06;73.48;100486.19;5054037;28;20052;-62
2022/12/12 03:56:22;;;;;;;30.65;17.73;;;;;;;1.08;73.08;100488.69;5054271;28;20059;-61
2022/12/12 03:58:54;;;;;;;;;;;;;;;1.24;73.27;100493.16;5056613;28;20064;-63
2022/12/12 04:01:25;;;;;;;29.20;16.33;;;;;;;1.29;72.81;100484.25;5045541;28;19932;-63
2022/12/12 04:04:08;;;;;;;29.98;16.85;;;;;;;1.15;73.11;100489.28;5018027;28;20048;-63
2022/12/12 04:06:48;;;;;;;31.83;17.58;;;;;;;1.30;72.62;100492.13;5047346;28;20079;-63
2022/12/12 04:15:25;;;;;;;29.90;17.48;;;;;;;1.41;72.93;100488.44;5056010;28;20054;-64
2022/12/12 04:18:14;;;;;;;31.45;16.65;;;;;;;1.34;72.21;100498.69;5045654;28;20049;-63
2022/12/12 04:23:46;;;;;;;29.15;17.08;;;;;;;1.15;72.78;100500.16;5015708;28;20053;-63
2022/12/12 04:26:39;;;;;;;28.17;15.80;;;;;;;1.24;72.82;100504.00;5031496;28;20049;-64
2022/12/12 04:29:25;;;;;;;32.25;16.83;;;;;;;1.15;72.94;100506.38;5054266;28;20056;-62
2022/12/12 04:32:07;;;;;;;32.30;18.20;;;;;;;1.26;72.95;100509.16;5055162;28;20062;-63
2022/12/12 04:34:48;;;;;;;30.38;16.52;;;;;;;1.31;72.96;100506.53;5037192;28;20056;-63
2022/12/12 04:37:18;;;;;;;31.58;17.10;;;;;;;1.47;72.31;100506.38;5042762;28;20076;-63
2022/12/12 04:39:48;;;;;;;32.90;17.67;;;;;;;1.38;72.37;100517.97;5017678;28;20057;-63
2022/12/12 04:42:20;;;;;;;29.77;17.25;;;;;;;1.65;71.63;100505.16;5030920;28;20057;-63
2022/12/12 04:44:50;;;;;;;32.05;17.42;;;;;;;1.48;71.59;100499.06;5025375;28;20045;-63
2022/12/12 04:47:19;;;;;;;30.95;16.33;;;;;;;1.53;71.95;100502.66;5018052;28;20053;-62
2022/12/12 04:49:48;;;;;;;31.10;17.33;;;;;;;1.34;72.62;100504.13;5037202;28;20400;-63
2022/12/12 04:52:17;;;;;;;35.20;17.42;;;;;;;1.40;72.50;100499.53;5022714;28;20052;-64
2022/12/12 04:54:54;;;;;;;31.45;18.17;;;;;;;1.62;72.10;100497.56;5016716;28;20452;-62
2022/12/12 04:57:46;;;;;;;34.92;18.17;;;;;;;1.67;71.79;100497.59;5052272;28;20059;-62
2022/12/12 05:00:14;;;;;;;32.35;17.38;;;;;;;1.64;71.94;100492.69;5031684;28;20052;-63
2022/12/12 05:02:50;;;;;;;30.70;18.38;;;;;;;1.53;71.88;100499.09;5054651;28;20053;-63
2022/12/12 05:05:24;;;;;;;31.55;17.25;;;;;;;1.55;71.77;100500.47;5054021;28;20049;-63
2022/12/12 05:08:06;;;;;;;28.42;17.05;;;;;;;1.50;72.09;100497.72;5016878;28;20525;-63
2022/12/12 05:10:41;;;;;;;34.10;17.73;;;;;;;1.56;72.24;100501.28;5011949;28;20058;-65
2022/12/12 05:13:17;;;;;;;35.33;18.13;;;;;;;1.66;71.70;100496.75;5033789;28;20362;-64
2022/12/12 05:15:45;;;;;;;31.00;17.85;;;;;;;1.49;72.02;100498.81;5034590;28;20052;-64
2022/12/12 05:18:13;;;;;;;32.97;18.58;;;;;;;1.20;73.00;100508.31;5036738;28;20050;-63
2022/12/12 05:20:40;;;;;;;30.20;17.50;;;;;;;1.33;73.21;100509.78;5029055;28;20053;-64
2022/12/12 05:23:07;;;;;;;32.92;18.70;;;;;;;1.45;72.75;100499.59;5035155;28;20049;-63
2022/12/12 05:25:35;;;;;;;29.77;17.33;;;;;;;1.43;73.21;100502.53;5039204;28;20060;-63
2022/12/12 05:28:02;;;;;;;32.13;17.83;;;;;;;1.17;73.37;100503.38;5039025;28;20616;-64
2022/12/12 05:30:34;;;;;;;33.72;17.55;;;;;;;1.23;73.88;100502.38;5037153;28;20057;-63
2022/12/12 05:33:02;;;;;;;33.20;18.58;;;;;;;1.26;73.52;100496.44;5038639;28;20050;-63
2022/12/12 05:35:29;;;;;;;34.67;18.75;;;;;;;1.28;73.93;100485.31;5038335;28;20107;-64
2022/12/12 05:37:56;;;;;;;32.00;18.75;;;;;;;1.11;74.16;100494.41;5038943;28;20183;-64
2022/12/12 05:40:24;;;;;;;36.83;19.90;;;;;;;0.91;74.35;100496.09;5038148;28;20049;-63
2022/12/12 05:42:51;;;;;;;36.17;18.88;;;;;;;1.22;74.09;100495.31;5038325;28;20053;-62
2022/12/12 05:45:19;;;;;;;36.67;18.95;;;;;;;1.09;74.54;100496.56;5038297;28;20212;-63
2022/12/12 05:47:46;;;;;;;31.45;18.17;;;;;;;1.31;74.02;100482.09;5058747;28;20052;-65
2022/12/12 05:50:13;;;;;;;34.92;18.92;;;;;;;1.33;73.42;100491.59;5057223;28;20049;-61
2022/12/12 05:52:41;;;;;;;33.25;19.35;;;;;;;1.54;73.45;100490.69;5038895;28;20063;-62
2022/12/12 05:55:08;;;;;;;35.13;19.35;;;;;;;1.40;73.43;100488.66;5052730;28;20053;-61
2022/12/12 05:57:36;;;;;;;33.53;19.17;;;;;;;1.39;72.95;100503.31;5036809;28;20065;-62
2022/12/12 06:00:04;;;;;;;33.78;18.38;;;;;;;1.24;73.71;100504.00;5037191;28;20049;-62
2022/12/12 06:02:32;;;;;;;32.53;18.15;;;;;;;1.62;73.30;100502.97;5036479;28;20045;-61
2022/12/12 06:05:00;;;;;;;35.30;19.42;;;;;;;1.58;72.36;100502.69;5019909;28;20060;-62
2022/12/12 06:07:28;;;;;;;31.27;17.40;;;;;;;1.64;72.66;100506.25;5034534;28;20064;-62
2022/12/12 06:09:55;;;;;;;35.88;18.83;;;;;;;1.50;72.68;100502.34;5029232;28;20054;-62
2022/12/12 06:12:22;;;;;;;36.60;19.88;;;;;;;1.61;72.50;100496.72;5037872;28;20057;-62
2022/12/12 06:14:50;;;;;;;39.08;19.25;;;;;;;1.60;72.32;100502.41;5053456;28;20141;-62
2022/12/12 06:17:17;;;;;;;37.08;20.20;;;;;;;1.44;72.86;100500.66;5042933;28;20049;-63
2022/12/12 06:19:45;;;;;;;32.88;18.55;;;;;;;1.53;72.62;100499.09;5040796;28;20044;-62
2022/12/12 06:22:12;;;;;;;33.85;18.70;;;;;;;1.59;71.96;100500.75;5058040;28;20053;-62
2022/12/12 06:24:40;;;;;;;34.72;19.92;;;;;;;1.24;73.04;100517.56;5023920;28;20053;-61
2022/12/12 06:27:07;;;;;;;35.63;20.05;;;;;;;1.41;72.60;100510.16;5042191;28;20045;-63
2022/12/12 06:29:34;;;;;;;34.47;18.88;;;;;;;1.42;72.91;100509.06;5036561;28;20563;-63
2022/12/12 06:32:02;;;;;;;33.30;19.10;;;;;;;1.49;72.72;100517.81;5037529;28;20061;-63
2022/12/12 06:34:30;;;;;;;34.08;19.75;;;;;;;1.71;72.20;100509.56;5036602;28;20045;-62
2022/12/12 06:36:57;;;;;;;44.80;24.98;;;;;;;1.65;72.38;100516.84;5036478;28;20056;-61
2022/12/12 06:39:24;;;;;;;39.72;21.65;;;;;;;1.70;72.08;100519.59;5029283;28;20053;-62
2022/12/12 06:41:52;;;;;;;42.65;24.92;;;;;;;1.77;72.14;100508.50;5050645;28;20412;-62
2022/12/12 06:44:19;;;;;;;57.95;30.83;;;;;;;1.71;71.73;100507.66;5049688;28;20057;-61
2022/12/12 06:46:46;;;;;;;33.10;19.13;;;;;;;1.40;72.74;100504.94;5048546;28;20053;-62
2022/12/12 06:49:14;;;;;;;31.75;19.00;;;;;;;1.47;72.49;100508.28;5056991;28;20059;-62
2022/12/12 06:51:42;;;;;;;37.67;19.88;;;;;;;1.50;72.87;100519.41;5021438;28;20068;-62
2022/12/12 06:54:16;;;;;;;36.67;20.35;;;;;;;1.32;73.03;100519.00;5037133;28;20046;-63
2022/12/12 06:56:43;;;;;;;39.80;20.20;;;;;;;1.17;73.13;100520.50;5037085;28;20049;-62
2022/12/12 06:59:15;;;;;;;33.33;19.17;;;;;;;1.25;73.05;100515.69;5052331;28;20057;-64
2022/12/12 07:01:43;;;;;;;37.40;19.63;;;;;;;1.61;72.42;100499.44;5036633;28;20048;-63
2022/12/12 07:04:11;;;;;;;37.90;20.38;;;;;;;1.63;71.97;100491.84;5052912;28;20053;-62
2022/12/12 07:06:39;;;;;;;35.45;19.83;;;;;;;1.43;72.07;100490.88;5036202;28;20065;-62
2022/12/12 07:09:07;;;;;;;34.88;20.15;;;;;;;1.15;72.57;100498.22;5042240;28;20530;-63
2022/12/12 07:11:34;;;;;;;36.95;20.10;;;;;;;1.14;73.10;100504.75;5052567;28;20056;-63
2022/12/12 07:14:04;;;;;;;38.75;21.20;;;;;;;1.22;72.95;100510.78;5057257;28;20050;-63
2022/12/12 07:16:31;;;;;;;34.58;20.08;;;;;;;0.93;74.01;100519.16;5050084;28;20053;-63
2022/12/12 07:18:59;;;;;;;44.08;21.50;;;;;;;0.93;73.90;100523.75;5033372;28;20052;-62
2022/12/12 07:21:26;;;;;;;38.45;20.65;;;;;;;1.09;74.14;100523.69;5025998;28;20048;-64
2022/12/12 07:23:55;;;;;;;36.58;20.88;;;;;;;1.00;74.29;100527.09;5026657;28;20052;-64
2022/12/12 07:26:23;;;;;;;39.28;20.70;;;;;;;0.86;74.18;100528.56;5040300;28;20053;-64
2022/12/12 07:28:51;;;;;;;40.10;22.10;;;;;;;0.82;74.30;100532.88;5018123;28;20068;-63
2022/12/12 07:31:21;;;;;;;35.80;20.27;;;;;;;0.95;73.90;100535.19;5034642;28;20060;-63
2022/12/12 07:33:48;;;;;;;36.33;20.48;;;;;;;1.20;74.30;100538.16;5017447;28;20052;-64
2022/12/12 07:36:16;;;;;;;41.25;22.45;;;;;;;1.31;73.34;100539.09;5036882;28;20054;-63
2022/12/12 07:38:44;;;;;;;37.88;20.60;;;;;;;1.15;72.95;100529.97;5030576;28;20049;-64
2022/12/12 07:41:14;;;;;;;38.85;20.15;;;;;;;1.34;73.37;100535.84;5038236;28;20038;-64
2022/12/12 07:43:43;;;;;;;37.58;19.67;;;;;;;1.40;72.73;100527.50;4985908;28;20053;-64
2022/12/12 07:46:15;;;;;;;38.33;20.25;;;;;;;1.44;72.37;100515.06;5035330;28;20049;-63
2022/12/12 07:48:43;;;;;;;55.15;20.98;;;;;;;1.48;72.76;100523.50;5000767;28;20507;-64
2022/12/12 07:51:11;;;;;;;36.45;20.45;;;;;;;1.44;72.73;100531.31;5010379;28;20540;-64
2022/12/12 07:53:39;;;;;;;41.60;20.67;;;;;;;1.47;72.51;100538.13;4994818;28;20405;-65
2022/12/12 07:56:08;;;;;;;40.92;20.85;;;;;;;1.01;72.88;100542.31;5007440;28;20424;-64
2022/12/12 07:58:36;;;;;;;50.50;20.33;;;;;;;1.34;73.26;100549.41;5035761;28;20046;-65
2022/12/12 08:01:09;;;;;;;40.13;21.15;;;;;;;1.20;72.31;100554.44;5030711;28;20048;-64
2022/12/12 08:03:42;;;;;;;40.70;21.35;;;;;;;1.03;72.40;100557.22;5014240;28;20057;-64
2022/12/12 08:06:10;;;;;;;37.87;21.53;;;;;;;1.03;72.94;100553.69;5035223;28;20033;-63
2022/12/12 08:08:38;;;;;;;40.03;21.60;;;;;;;1.19;73.85;100557.41;5009862;28;20783;-65
2022/12/12 08:11:07;;;;;;;41.85;21.85;;;;;;;0.84;73.66;100561.34;5007727;28;20054;-64
2022/12/12 08:13:35;;;;;;;41.05;22.15;;;;;;;1.11;73.17;100562.22;4990113;28;20060;-64
2022/12/12 08:16:04;;;;;;;36.15;20.33;;;;;;;1.14;73.38;100564.41;5030095;28;20052;-64
2022/12/12 08:18:32;;;;;;;36.80;21.83;;;;;;;1.04;73.18;100575.16;4988210;28;20505;-63
2022/12/12 08:20:59;;;;;;;36.42;21.20;;;;;;;1.05;73.99;100560.50;5032675;28;20045;-65
2022/12/12 08:23:26;;;;;;;37.70;20.80;;;;;;;1.17;73.20;100554.94;5035404;28;20049;-63
2022/12/12 08:25:54;;;;;;;40.38;20.58;;;;;;;1.35;72.74;100548.31;5022083;28;20041;-64
2022/12/12 08:28:21;;;;;;;40.50;21.45;;;;;;;1.18;72.66;100556.59;5025134;28;20057;-64
2022/12/12 08:30:49;;;;;;;37.60;20.60;;;;;;;1.04;73.71;100563.47;5020573;28;20056;-65
2022/12/12 08:33:17;;;;;;;36.30;21.23;;;;;;;1.17;73.49;100570.41;5048475;28;20061;-64
2022/12/12 08:35:44;;;;;;;41.53;21.30;;;;;;;1.03;72.94;100572.69;5028708;28;20052;-63
2022/12/12 08:38:12;;;;;;;34.80;19.55;;;;;;;1.28;73.00;100574.84;5022939;28;20054;-65
2022/12/12 08:40:40;;;;;;;39.15;21.65;;;;;;;1.05;72.59;100584.09;5019923;28;20129;-64
2022/12/12 08:43:08;;;;;;;40.22;21.90;;;;;;;1.09;72.42;100587.94;5023821;28;20057;-64
2022/12/12 08:45:37;;;;;;;40.17;21.20;;;;;;;1.21;72.57;100596.75;5024966;28;20053;-65
2022/12/12 08:48:05;;;;;;;40.95;21.20;;;;;;;1.31;71.56;100596.84;5017885;28;20406;-64
2022/12/12 08:50:33;;;;;;;37.92;21.88;;;;;;;1.34;72.01;100596.38;5022926;28;20041;-64
2022/12/12 08:53:00;;;;;;;38.88;21.25;;;;;;;1.35;71.59;100598.00;5033441;28;20050;-63
2022/12/12 08:55:29;;;;;;;36.78;21.08;;;;;;;1.45;71.51;100587.22;5028338;28;20045;-64
2022/12/12 08:57:56;;;;;;;41.00;22.17;;;;;;;1.19;72.25;100595.38;5012621;28;20045;-63
2022/12/12 09:00:23;;;;;;;43.38;20.33;;;;;;;1.13;71.94;100599.94;5012305;28;20053;-63
2022/12/12 09:02:51;;;;;;;37.03;21.58;;;;;;;0.78;72.59;100603.06;5021617;28;20065;-63
2022/12/12 09:05:18;;;;;;;42.33;21.52;;;;;;;1.23;72.52;100593.78;5025006;28;20072;-63
2022/12/12 09:07:46;;;;;;;41.50;22.80;;;;;;;1.26;71.71;100595.97;5027148;28;20477;-63
2022/12/12 09:10:13;;;;;;;40.08;21.88;;;;;;;1.21;72.57;100591.31;5000352;28;20080;-63
2022/12/12 09:12:40;;;;;;;38.50;21.38;;;;;;;1.21;71.89;100602.19;5028216;28;20060;-62
2022/12/12 09:15:08;;;;;;;38.45;22.08;;;;;;;1.22;71.61;100603.81;5024268;28;20521;-64
2022/12/12 09:17:36;;;;;;;47.33;26.08;;;;;;;1.02;71.40;100609.00;5027177;28;20065;-63
2022/12/12 09:20:04;;;;;;;56.42;32.03;;;;;;;1.28;71.92;100589.22;4983114;28;20068;-63
2022/12/12 09:22:32;;;;;;;43.38;23.40;;;;;;;1.27;71.14;100584.91;4980203;28;20057;-62
2022/12/12 09:24:59;;;;;;;43.78;22.52;;;;;;;1.33;71.26;100586.56;5023340;28;20426;-63
2022/12/12 09:27:26;;;;;;;39.58;21.33;;;;;;;1.51;70.32;100579.97;5027322;28;20527;-63
2022/12/12 09:29:54;;;;;;;42.22;21.90;;;;;;;1.70;69.97;100582.03;5023744;28;20049;-62
2022/12/12 09:32:21;;;;;;;39.20;21.42;;;;;;;1.65;69.95;100573.84;5025477;28;20075;-63
2022/12/12 09:34:51;;;;;;;41.78;21.98;;;;;;;1.36;70.55;100580.63;4989553;28;20069;-65
2022/12/12 09:37:18;;;;;;;41.97;22.10;;;;;;;0.99;71.41;100575.06;5005410;28;20469;-63
2022/12/12 09:39:45;;;;;;;39.20;22.75;;;;;;;1.03;71.73;100580.81;5012058;28;20505;-63
2022/12/12 09:42:25;;;;;;;46.13;23.88;;;;;;;1.07;71.40;100585.50;5027191;28;20068;-63
2022/12/12 09:44:55;;;;;;;37.03;22.33;;;;;;;1.26;70.78;100582.41;5014265;28;20057;-65
2022/12/12 09:47:28;;;;;;;;;;;;;;;0.98;71.23;100584.31;5034727;28;20050;-66
2022/12/12 09:50:01;;;;;;;44.00;22.80;;;;;;;1.14;71.72;100583.41;5033718;28;19921;-62
2022/12/12 09:52:35;;;;;;;42.63;22.63;;;;;;;1.17;71.01;100578.53;5001939;28;20067;-62
2022/12/12 09:55:19;;;;;;;40.72;22.73;;;;;;;0.79;71.54;100587.59;5008618;28;20057;-63
2022/12/12 09:57:55;;;;;;;45.25;24.90;;;;;;;1.16;72.00;100585.84;5016709;28;20060;-63
2022/12/12 10:00:23;;;;;;;43.70;22.63;;;;;;;1.29;71.27;100580.00;5028935;28;20053;-63
2022/12/12 10:02:56;;;;;;;42.83;22.73;;;;;;;1.22;71.77;100579.38;5012885;28;20073;-63
2022/12/12 10:05:32;;;;;;;43.88;22.80;;;;;;;1.44;70.88;100577.47;5028001;28;20045;-63
2022/12/12 10:08:21;;;;;;;46.17;23.50;;;;;;;1.54;70.37;100565.88;5026900;28;20060;-63
2022/12/12 10:10:55;;;;;;;46.20;24.10;;;;;;;1.12;71.23;100563.00;5023308;28;20052;-63
2022/12/12 10:13:24;;;;;;;44.22;23.92;;;;;;;1.35;71.53;100560.00;5022565;28;20540;-64
2022/12/12 10:15:58;;;;;;;41.88;22.75;;;;;;;1.51;71.36;100552.81;5010229;28;20046;-63
2022/12/12 10:18:42;;;;;;;46.53;25.55;;;;;;;1.57;70.39;100540.94;5039946;28;20050;-64
2022/12/12 10:21:25;;;;;;;42.28;24.30;;;;;;;1.49;69.98;100554.97;5006585;28;20398;-63
2022/12/12 10:24:17;;;;;;;45.55;25.13;;;;;;;1.33;69.90;100547.75;4999369;28;20054;-64
2022/12/12 10:26:45;;;;;;;41.97;23.95;;;;;;;1.31;70.46;100541.78;5028255;28;20049;-65
2022/12/12 10:29:17;;;;;;;44.80;25.02;;;;;;;1.22;69.90;100551.47;5000716;28;20054;-63
2022/12/12 10:32:08;;;;;;;46.53;26.88;;;;;;;1.22;69.99;100554.19;5036099;28;20049;-64
2022/12/12 10:34:58;;;;;;;56.38;29.08;;;;;;;1.20;70.08;100567.16;5022163;28;20144;-64
2022/12/12 10:37:50;;;;;;;41.13;23.95;;;;;;;1.43;69.80;100578.53;5033283;28;20041;-63
2022/12/12 10:40:33;;;;;;;47.25;23.90;;;;;;;1.46;69.52;100574.50;5016015;28;20061;-64
2022/12/12 10:43:12;;;;;;;47.30;25.45;;;;;;;1.74;69.03;100566.06;5032118;28;20057;-64
2022/12/12 10:45:45;;;;;;;47.33;25.80;;;;;;;1.40;69.22;100565.47;5014323;28;20053;-63
2022/12/12 10:48:13;;;;;;;46.92;24.90;;;;;;;1.52;69.34;100559.88;5007037;28;20046;-65
2022/12/12 10:50:47;;;;;;;42.72;24.13;;;;;;;1.52;68.42;100551.72;5021650;28;20041;-66
2022/12/12 10:53:15;;;;;;;43.47;24.05;;;;;;;1.53;67.95;100551.50;5018014;28;20053;-65
2022/12/12 10:55:52;;;;;;;45.33;23.97;;;;;;;1.50;67.92;100540.34;5024955;28;20045;-65
2022/12/12 10:58:27;;;;;;;42.83;22.77;;;;;;;1.55;67.66;100543.09;5044846;28;20061;-65
2022/12/12 11:01:03;;;;;;;47.65;25.58;;;;;;;1.58;67.70;100537.97;5026976;28;20064;-65
2022/12/12 11:03:36;;;;;;;48.50;24.85;;;;;;;0.95;69.29;100537.88;5012495;28;20049;-66
2022/12/12 11:06:07;;;;;;;310.83;105.85;;;;;;;1.12;69.32;100525.03;5001625;28;20535;-67
2022/12/12 11:08:35;;;;;;;46.92;25.85;;;;;;;0.97;69.25;100509.47;4999888;28;20057;-66
2022/12/12 11:11:05;;;;;;;43.00;23.80;;;;;;;0.81;69.20;100512.25;5023057;28;20045;-64
2022/12/12 11:13:44;;;;;;;;;;;;;;;0.93;69.41;100507.50;5015093;28;20061;-65
2022/12/12 11:16:18;;;;;;;43.00;23.05;;;;;;;0.57;69.93;100503.59;5021397;28;19936;-65
2022/12/12 11:18:59;;;;;;;44.60;23.83;;;;;;;0.68;71.07;100490.97;5028995;28;20057;-66
2022/12/12 11:21:27;;;;;;;45.38;24.27;;;;;;;0.69;70.58;100479.06;5030160;28;20416;-64
2022/12/12 11:23:56;;;;;;;46.90;24.95;;;;;;;0.99;69.49;100461.19;5000276;28;20566;-66
2022/12/12 11:26:25;;;;;;;51.38;23.98;;;;;;;1.08;68.80;100473.22;5016481;28;20044;-65
2022/12/12 11:29:01;;;;;;;42.47;22.70;;;;;;;1.11;69.09;100471.88;5029937;28;20056;-65
2022/12/12 11:31:36;;;;;;;40.47;21.48;;;;;;;0.75;68.94;100470.72;5021619;28;20053;-65
2022/12/12 11:34:05;;;;;;;42.38;23.17;;;;;;;0.63;69.58;100471.94;5002080;28;20382;-65
2022/12/12 11:36:37;;;;;;;38.47;21.77;;;;;;;0.65;69.87;100469.78;5020823;28;20053;-63
2022/12/12 11:39:36;;;;;;;44.80;22.65;;;;;;;0.40;70.93;100473.00;4984875;28;20061;-65
2022/12/12 11:42:05;;;;;;;53.70;25.85;;;;;;;0.36;71.54;100463.78;4993987;28;20532;-63
2022/12/12 11:44:37;;;;;;;65.40;32.15;;;;;;;0.63;71.30;100463.78;5011830;28;20073;-65
2022/12/12 11:47:16;;;;;;;55.72;27.85;;;;;;;0.61;70.58;100461.34;5033176;28;20061;-65
2022/12/12 11:49:53;;;;;;;49.05;23.95;;;;;;;0.69;70.49;100454.66;5028274;28;20065;-64